Maritime Instructor — WCW8625 — position and weather

sailwx.info

Track history (hours):
 
Tides and Currents Weather Stations Pressure Air Temp Water Temp Dewpoint Dewpoint Depression Visibility Wind Speed Wind Dir Waves Ship Positions

Maritime Instructor

Owner: WASHINGTON, STATE OF, SEATTLE, WA. More information available from US FCC via Universal Licensing System and Coast Guard Vessel Documentation Center.

Last reported at 2015-Feb-28 02:33 UTC. Time now 2015-Mar-02 19:01 UTC.
Position N 47°40' W 122°23'.

Length 30 m; draft 2 m.

Type: Ship. MMSI: 303556000.

Date/timePositionNaut miles runAvg speedWind from/ knotsBaromVisibWave heightAir tempDewpointWater temp
2015-Feb-28 02:33N 47°40' W 122°23'0 0.5
2015-Feb-28 02:32N 47°40' W 122°23'3 2.8
2015-Feb-28 01:33N 47°41' W 122°26'1 9.8
2015-Feb-28 01:27N 47°40' W 122°27'1412.0
2015-Feb-28 00:17N 47°26' W 122°23'8 9.6
2015-Feb-27 23:29N 47°19' W 122°26'4 4.3
2015-Feb-27 22:32N 47°15' W 122°26'0 0.0
2015-Feb-27 21:31N 47°15' W 122°26'0 0.3
2015-Feb-27 20:31N 47°15' W 122°26'1010.5
2015-Feb-27 19:33N 47°25' W 122°23'812.7
2015-Feb-27 18:55N 47°33' W 122°25'512.7
2015-Feb-27 18:33N 47°37' W 122°26'311.7
2015-Feb-27 18:18N 47°40' W 122°26'3 3.5
2015-Feb-27 17:33N 47°40' W 122°23'0 0.0
2015-Feb-27 17:29N 47°40' W 122°23'  
2015-Feb-25 02:32N 47°40' W 122°23'3 3.0
2015-Feb-25 01:33N 47°38' W 122°26'10 9.7
2015-Feb-25 00:33N 47°28' W 122°24'9 9.2
2015-Feb-24 23:33N 47°19' W 122°27'5 1.7
2015-Feb-24 20:32N 47°20' W 122°35'4 4.0
2015-Feb-24 19:33N 47°23' W 122°32'9 8.9
2015-Feb-24 18:33N 47°32' W 122°29'6 9.7
2015-Feb-24 17:56N 47°38' W 122°29'3 8.7
2015-Feb-24 17:33N 47°41' W 122°28'112.5
2015-Feb-24 17:26N 47°41' W 122°26'  
2015-Feb-21 02:34N 47°40' W 122°23'0 0.5
2015-Feb-21 02:33N 47°40' W 122°23'0 0.1
2015-Feb-21 02:29N 47°40' W 122°23'4 4.5
2015-Feb-21 01:33N 47°44' W 122°25'110.0
2015-Feb-21 01:29N 47°44' W 122°25'8 8.6
2015-Feb-21 00:33N 47°52' W 122°22'9 9.0
2015-Feb-20 23:33N 47°59' W 122°13'1 0.9
2015-Feb-20 22:33N 47°60' W 122°13'0 0.0
2015-Feb-20 21:10N 47°60' W 122°13'0 0.0
2015-Feb-20 20:33N 47°60' W 122°13'2 4.6
2015-Feb-20 20:03N 47°58' W 122°16'5 9.4
2015-Feb-20 19:33N 47°55' W 122°20'110.3
2015-Feb-20 19:27N 47°54' W 122°21'9 9.6
2015-Feb-20 18:33N 47°45' W 122°25'0 9.4
2015-Feb-20 18:32N 47°45' W 122°25'6 5.8
2015-Feb-20 17:33N 47°40' W 122°23'0 0.3
2015-Feb-20 17:32N 47°40' W 122°23'  
2015-Feb-18 02:42N 47°40' W 122°23'0 0.0
2015-Feb-18 02:33N 47°40' W 122°23'  
Track history (hours):
 
Tides and Currents Weather Stations Pressure Air Temp Water Temp Dewpoint Dewpoint Depression Visibility Wind Speed Wind Dir Waves Ship Positions

Maritime Instructor

Owner: WASHINGTON, STATE OF, SEATTLE, WA. More information available from US FCC via Universal Licensing System and Coast Guard Vessel Documentation Center.

Last reported at 2015-Feb-28 02:33 UTC. Time now 2015-Mar-02 19:01 UTC.
Position N 47°40' W 122°23'.

Length 30 m; draft 2 m.

Type: Ship. MMSI: 303556000.

Date/timePositionNaut miles runAvg speedWind from/ knotsBaromVisibWave heightAir tempDewpointWater temp
2015-Feb-28 02:33N 47°40' W 122°23'0 0.5
2015-Feb-28 02:32N 47°40' W 122°23'3 2.8
2015-Feb-28 01:33N 47°41' W 122°26'1 9.8
2015-Feb-28 01:27N 47°40' W 122°27'1412.0
2015-Feb-28 00:17N 47°26' W 122°23'8 9.6
2015-Feb-27 23:29N 47°19' W 122°26'4 4.3
2015-Feb-27 22:32N 47°15' W 122°26'0 0.0
2015-Feb-27 21:31N 47°15' W 122°26'0 0.3
2015-Feb-27 20:31N 47°15' W 122°26'1010.5
2015-Feb-27 19:33N 47°25' W 122°23'812.7
2015-Feb-27 18:55N 47°33' W 122°25'512.7
2015-Feb-27 18:33N 47°37' W 122°26'311.7
2015-Feb-27 18:18N 47°40' W 122°26'3 3.5
2015-Feb-27 17:33N 47°40' W 122°23'0 0.0
2015-Feb-27 17:29N 47°40' W 122°23'  
2015-Feb-25 02:32N 47°40' W 122°23'3 3.0
2015-Feb-25 01:33N 47°38' W 122°26'10 9.7
2015-Feb-25 00:33N 47°28' W 122°24'9 9.2
2015-Feb-24 23:33N 47°19' W 122°27'5 1.7
2015-Feb-24 20:32N 47°20' W 122°35'4 4.0
2015-Feb-24 19:33N 47°23' W 122°32'9 8.9
2015-Feb-24 18:33N 47°32' W 122°29'6 9.7
2015-Feb-24 17:56N 47°38' W 122°29'3 8.7
2015-Feb-24 17:33N 47°41' W 122°28'112.5
2015-Feb-24 17:26N 47°41' W 122°26'  
2015-Feb-21 02:34N 47°40' W 122°23'0 0.5
2015-Feb-21 02:33N 47°40' W 122°23'0 0.1
2015-Feb-21 02:29N 47°40' W 122°23'4 4.5
2015-Feb-21 01:33N 47°44' W 122°25'110.0
2015-Feb-21 01:29N 47°44' W 122°25'8 8.6
2015-Feb-21 00:33N 47°52' W 122°22'9 9.0
2015-Feb-20 23:33N 47°59' W 122°13'1 0.9
2015-Feb-20 22:33N 47°60' W 122°13'0 0.0
2015-Feb-20 21:10N 47°60' W 122°13'0 0.0
2015-Feb-20 20:33N 47°60' W 122°13'2 4.6
2015-Feb-20 20:03N 47°58' W 122°16'5 9.4
2015-Feb-20 19:33N 47°55' W 122°20'110.3
2015-Feb-20 19:27N 47°54' W 122°21'9 9.6
2015-Feb-20 18:33N 47°45' W 122°25'0 9.4
2015-Feb-20 18:32N 47°45' W 122°25'6 5.8
2015-Feb-20 17:33N 47°40' W 122°23'0 0.3
2015-Feb-20 17:32N 47°40' W 122°23'  
2015-Feb-18 02:42N 47°40' W 122°23'0 0.0
2015-Feb-18 02:33N 47°40' W 122°23'  

Dump ship's entire track history